<?xml version="1.0" encoding="UTF-8" standalone="no" ?>
<gpx xmlns="http://www.topografix.com/GPX/1/1" xmlns:xsi="http://www.w3.org/2001/XMLSchema-instance" xsi:schemaLocation="http://www.topografix.com/GPX/1/1 http://www.topografix.com/GPX/1/1/gpx.xsd" version="1.1" creator="VisuGPX - https://www.visugpx.com">
  <metadata>
    <name>Minerve</name>
    <desc><![CDATA[Rando minerve : boucle   A/R sur GR]]></desc>
  </metadata>
  <trk>
    <name><![CDATA[ACTIVE LOG173138]]></name>
    <trkseg>
      <trkpt lat="43.35568" lon="2.74251">
        <ele>217.088</ele>
        <time>2011-03-20T16:31:38Z</time>
      </trkpt>
      <trkpt lat="43.35568" lon="2.74251">
        <ele>215.389</ele>
        <time>2011-03-20T16:32:06Z</time>
      </trkpt>
      <trkpt lat="43.35568" lon="2.74251">
        <ele>213.869</ele>
        <time>2011-03-20T16:32:16Z</time>
      </trkpt>
      <trkpt lat="43.35568" lon="2.74251">
        <ele>212.361</ele>
        <time>2011-03-20T16:32:28Z</time>
      </trkpt>
      <trkpt lat="43.35568" lon="2.74251">
        <ele>202.75</ele>
        <time>2011-03-20T16:32:43Z</time>
      </trkpt>
      <trkpt lat="43.35568" lon="2.74251">
        <ele>209.655</ele>
        <time>2011-03-20T16:32:44Z</time>
      </trkpt>
      <trkpt lat="43.35568" lon="2.74251">
        <ele>212.295</ele>
        <time>2011-03-20T16:32:45Z</time>
      </trkpt>
      <trkpt lat="43.35568" lon="2.74251">
        <ele>212.575</ele>
        <time>2011-03-20T16:32:59Z</time>
      </trkpt>
      <trkpt lat="43.35568" lon="2.74251">
        <ele>214.334</ele>
        <time>2011-03-20T16:33:01Z</time>
      </trkpt>
      <trkpt lat="43.35568" lon="2.74251">
        <ele>215.951</ele>
        <time>2011-03-20T16:33:03Z</time>
      </trkpt>
      <trkpt lat="43.35568" lon="2.74251">
        <ele>217.648</ele>
        <time>2011-03-20T16:33:05Z</time>
      </trkpt>
      <trkpt lat="43.35568" lon="2.74251">
        <ele>219.165</ele>
        <time>2011-03-20T16:33:08Z</time>
      </trkpt>
      <trkpt lat="43.35568" lon="2.74251">
        <ele>220.803</ele>
        <time>2011-03-20T16:33:11Z</time>
      </trkpt>
      <trkpt lat="43.35568" lon="2.74251">
        <ele>222.681</ele>
        <time>2011-03-20T16:33:16Z</time>
      </trkpt>
      <trkpt lat="43.35568" lon="2.74251">
        <ele>224.367</ele>
        <time>2011-03-20T16:33:19Z</time>
      </trkpt>
      <trkpt lat="43.35568" lon="2.74251">
        <ele>226.119</ele>
        <time>2011-03-20T16:33:21Z</time>
      </trkpt>
      <trkpt lat="43.35568" lon="2.74251">
        <ele>224.489</ele>
        <time>2011-03-20T16:33:29Z</time>
      </trkpt>
      <trkpt lat="43.35568" lon="2.74251">
        <ele>222.822</ele>
        <time>2011-03-20T16:33:39Z</time>
      </trkpt>
      <trkpt lat="43.35568" lon="2.74251">
        <ele>221.16</ele>
        <time>2011-03-20T16:33:49Z</time>
      </trkpt>
      <trkpt lat="43.35568" lon="2.74251">
        <ele>219.585</ele>
        <time>2011-03-20T16:33:58Z</time>
      </trkpt>
      <trkpt lat="43.35568" lon="2.74251">
        <ele>217.936</ele>
        <time>2011-03-20T16:34:08Z</time>
      </trkpt>
      <trkpt lat="43.35568" lon="2.74251">
        <ele>216.633</ele>
        <time>2011-03-20T16:34:11Z</time>
      </trkpt>
      <trkpt lat="43.35568" lon="2.74251">
        <ele>214.728</ele>
        <time>2011-03-20T16:34:15Z</time>
      </trkpt>
      <trkpt lat="43.35568" lon="2.74251">
        <ele>212.892</ele>
        <time>2011-03-20T16:34:21Z</time>
      </trkpt>
      <trkpt lat="43.35568" lon="2.74251">
        <ele>211.224</ele>
        <time>2011-03-20T16:34:29Z</time>
      </trkpt>
      <trkpt lat="43.35568" lon="2.74251">
        <ele>209.515</ele>
        <time>2011-03-20T16:34:32Z</time>
      </trkpt>
      <trkpt lat="43.35568" lon="2.74251">
        <ele>207.811</ele>
        <time>2011-03-20T16:34:38Z</time>
      </trkpt>
      <trkpt lat="43.35568" lon="2.74251">
        <ele>206.228</ele>
        <time>2011-03-20T16:34:40Z</time>
      </trkpt>
      <trkpt lat="43.35568" lon="2.74251">
        <ele>204.624</ele>
        <time>2011-03-20T16:34:43Z</time>
      </trkpt>
      <trkpt lat="43.35568" lon="2.74251">
        <ele>202.928</ele>
        <time>2011-03-20T16:34:50Z</time>
      </trkpt>
      <trkpt lat="43.35568" lon="2.74251">
        <ele>201.321</ele>
        <time>2011-03-20T16:34:54Z</time>
      </trkpt>
      <trkpt lat="43.35568" lon="2.74251">
        <ele>199.556</ele>
        <time>2011-03-20T16:34:57Z</time>
      </trkpt>
      <trkpt lat="43.35568" lon="2.74251">
        <ele>197.841</ele>
        <time>2011-03-20T16:34:59Z</time>
      </trkpt>
      <trkpt lat="43.35568" lon="2.74251">
        <ele>196.179</ele>
        <time>2011-03-20T16:35:03Z</time>
      </trkpt>
      <trkpt lat="43.35568" lon="2.74251">
        <ele>194.538</ele>
        <time>2011-03-20T16:35:07Z</time>
      </trkpt>
      <trkpt lat="43.35568" lon="2.74251">
        <ele>196.092</ele>
        <time>2011-03-20T16:35:38Z</time>
      </trkpt>
      <trkpt lat="43.35568" lon="2.74251">
        <ele>194.395</ele>
        <time>2011-03-20T16:35:51Z</time>
      </trkpt>
      <trkpt lat="43.35568" lon="2.74251">
        <ele>192.85</ele>
        <time>2011-03-20T16:35:54Z</time>
      </trkpt>
      <trkpt lat="43.35568" lon="2.74251">
        <ele>191.132</ele>
        <time>2011-03-20T16:35:58Z</time>
      </trkpt>
      <trkpt lat="43.35568" lon="2.74251">
        <ele>189.557</ele>
        <time>2011-03-20T16:36:20Z</time>
      </trkpt>
      <trkpt lat="43.35568" lon="2.74251">
        <ele>187.951</ele>
        <time>2011-03-20T16:36:28Z</time>
      </trkpt>
      <trkpt lat="43.35568" lon="2.74251">
        <ele>186.376</ele>
        <time>2011-03-20T16:36:33Z</time>
      </trkpt>
      <trkpt lat="43.35568" lon="2.74251">
        <ele>184.875</ele>
        <time>2011-03-20T16:36:53Z</time>
      </trkpt>
      <trkpt lat="43.35568" lon="2.74251">
        <ele>186.825</ele>
        <time>2011-03-20T16:37:07Z</time>
      </trkpt>
      <trkpt lat="43.35568" lon="2.74251">
        <ele>187.568</ele>
        <time>2011-03-20T16:37:08Z</time>
      </trkpt>
      <trkpt lat="43.35568" lon="2.74251">
        <ele>189.219</ele>
        <time>2011-03-20T16:37:10Z</time>
      </trkpt>
      <trkpt lat="43.35568" lon="2.74251">
        <ele>190.836</ele>
        <time>2011-03-20T16:37:12Z</time>
      </trkpt>
      <trkpt lat="43.35568" lon="2.74251">
        <ele>192.422</ele>
        <time>2011-03-20T16:37:15Z</time>
      </trkpt>
      <trkpt lat="43.35568" lon="2.74251">
        <ele>194.147</ele>
        <time>2011-03-20T16:37:18Z</time>
      </trkpt>
      <trkpt lat="43.35568" lon="2.74251">
        <ele>195.772</ele>
        <time>2011-03-20T16:37:20Z</time>
      </trkpt>
      <trkpt lat="43.35568" lon="2.74251">
        <ele>193.841</ele>
        <time>2011-03-20T16:37:27Z</time>
      </trkpt>
      <trkpt lat="43.35568" lon="2.74251">
        <ele>192.091</ele>
        <time>2011-03-20T16:37:29Z</time>
      </trkpt>
      <trkpt lat="43.35568" lon="2.74251">
        <ele>190.266</ele>
        <time>2011-03-20T16:37:31Z</time>
      </trkpt>
      <trkpt lat="43.35568" lon="2.74251">
        <ele>188.704</ele>
        <time>2011-03-20T16:37:34Z</time>
      </trkpt>
      <trkpt lat="43.35568" lon="2.74251">
        <ele>187.087</ele>
        <time>2011-03-20T16:37:36Z</time>
      </trkpt>
      <trkpt lat="43.35568" lon="2.74251">
        <ele>185.314</ele>
        <time>2011-03-20T16:37:38Z</time>
      </trkpt>
      <trkpt lat="43.35568" lon="2.74251">
        <ele>183.8</ele>
        <time>2011-03-20T16:37:40Z</time>
      </trkpt>
      <trkpt lat="43.35568" lon="2.74251">
        <ele>181.987</ele>
        <time>2011-03-20T16:37:45Z</time>
      </trkpt>
      <trkpt lat="43.35568" lon="2.74251">
        <ele>180.468</ele>
        <time>2011-03-20T16:37:48Z</time>
      </trkpt>
      <trkpt lat="43.35568" lon="2.74251">
        <ele>178.835</ele>
        <time>2011-03-20T16:37:55Z</time>
      </trkpt>
      <trkpt lat="43.35568" lon="2.74251">
        <ele>177.112</ele>
        <time>2011-03-20T16:38:00Z</time>
      </trkpt>
      <trkpt lat="43.35568" lon="2.74251">
        <ele>175.606</ele>
        <time>2011-03-20T16:38:03Z</time>
      </trkpt>
      <trkpt lat="43.35568" lon="2.74251">
        <ele>174.039</ele>
        <time>2011-03-20T16:38:05Z</time>
      </trkpt>
      <trkpt lat="43.35568" lon="2.74251">
        <ele>172.139</ele>
        <time>2011-03-20T16:38:08Z</time>
      </trkpt>
      <trkpt lat="43.35568" lon="2.74251">
        <ele>173.682</ele>
        <time>2011-03-20T16:38:32Z</time>
      </trkpt>
      <trkpt lat="43.35568" lon="2.74251">
        <ele>175.186</ele>
        <time>2011-03-20T16:38:36Z</time>
      </trkpt>
      <trkpt lat="43.35568" lon="2.74251">
        <ele>176.753</ele>
        <time>2011-03-20T16:38:38Z</time>
      </trkpt>
      <trkpt lat="43.35568" lon="2.74251">
        <ele>175.239</ele>
        <time>2011-03-20T16:39:06Z</time>
      </trkpt>
      <trkpt lat="43.35568" lon="2.74251">
        <ele>173.698</ele>
        <time>2011-03-20T16:39:46Z</time>
      </trkpt>
      <trkpt lat="43.35568" lon="2.74251">
        <ele>172.1</ele>
        <time>2011-03-20T16:39:50Z</time>
      </trkpt>
      <trkpt lat="43.35568" lon="2.74251">
        <ele>170.136</ele>
        <time>2011-03-20T16:39:54Z</time>
      </trkpt>
      <trkpt lat="43.35568" lon="2.74251">
        <ele>168.633</ele>
        <time>2011-03-20T16:40:00Z</time>
      </trkpt>
      <trkpt lat="43.35568" lon="2.74251">
        <ele>170.279</ele>
        <time>2011-03-20T16:40:24Z</time>
      </trkpt>
      <trkpt lat="43.35568" lon="2.74251">
        <ele>171.967</ele>
        <time>2011-03-20T16:40:30Z</time>
      </trkpt>
      <trkpt lat="43.35568" lon="2.74251">
        <ele>173.524</ele>
        <time>2011-03-20T16:40:42Z</time>
      </trkpt>
      <trkpt lat="43.35568" lon="2.74251">
        <ele>175.138</ele>
        <time>2011-03-20T16:40:49Z</time>
      </trkpt>
      <trkpt lat="43.35568" lon="2.74251">
        <ele>176.681</ele>
        <time>2011-03-20T16:40:54Z</time>
      </trkpt>
      <trkpt lat="43.35568" lon="2.74251">
        <ele>178.409</ele>
        <time>2011-03-20T16:41:12Z</time>
      </trkpt>
      <trkpt lat="43.35568" lon="2.74251">
        <ele>180.04</ele>
        <time>2011-03-20T16:41:17Z</time>
      </trkpt>
      <trkpt lat="43.35568" lon="2.74251">
        <ele>181.567</ele>
        <time>2011-03-20T16:41:21Z</time>
      </trkpt>
      <trkpt lat="43.35568" lon="2.74251">
        <ele>183.07</ele>
        <time>2011-03-20T16:41:24Z</time>
      </trkpt>
      <trkpt lat="43.35568" lon="2.74251">
        <ele>184.801</ele>
        <time>2011-03-20T16:41:27Z</time>
      </trkpt>
      <trkpt lat="43.35568" lon="2.74251">
        <ele>186.352</ele>
        <time>2011-03-20T16:41:30Z</time>
      </trkpt>
      <trkpt lat="43.35568" lon="2.74251">
        <ele>187.927</ele>
        <time>2011-03-20T16:41:37Z</time>
      </trkpt>
      <trkpt lat="43.35568" lon="2.74251">
        <ele>186.326</ele>
        <time>2011-03-20T16:42:04Z</time>
      </trkpt>
      <trkpt lat="43.35568" lon="2.74251">
        <ele>184.764</ele>
        <time>2011-03-20T16:42:06Z</time>
      </trkpt>
      <trkpt lat="43.35568" lon="2.74251">
        <ele>183.16</ele>
        <time>2011-03-20T16:42:09Z</time>
      </trkpt>
      <trkpt lat="43.35568" lon="2.74251">
        <ele>181.366</ele>
        <time>2011-03-20T16:42:13Z</time>
      </trkpt>
      <trkpt lat="43.35568" lon="2.74251">
        <ele>179.783</ele>
        <time>2011-03-20T16:42:16Z</time>
      </trkpt>
      <trkpt lat="43.35568" lon="2.74251">
        <ele>178.116</ele>
        <time>2011-03-20T16:42:19Z</time>
      </trkpt>
      <trkpt lat="43.35568" lon="2.74251">
        <ele>176.61</ele>
        <time>2011-03-20T16:42:28Z</time>
      </trkpt>
      <trkpt lat="43.35568" lon="2.74251">
        <ele>175.025</ele>
        <time>2011-03-20T16:42:41Z</time>
      </trkpt>
      <trkpt lat="43.35568" lon="2.74251">
        <ele>173.45</ele>
        <time>2011-03-20T16:42:51Z</time>
      </trkpt>
      <trkpt lat="43.35568" lon="2.74251">
        <ele>171.822</ele>
        <time>2011-03-20T16:43:00Z</time>
      </trkpt>
      <trkpt lat="43.35568" lon="2.74251">
        <ele>170.298</ele>
        <time>2011-03-20T16:43:15Z</time>
      </trkpt>
      <trkpt lat="43.35568" lon="2.74251">
        <ele>171.917</ele>
        <time>2011-03-20T16:43:45Z</time>
      </trkpt>
      <trkpt lat="43.35568" lon="2.74251">
        <ele>173.592</ele>
        <time>2011-03-20T16:44:05Z</time>
      </trkpt>
      <trkpt lat="43.35568" lon="2.74251">
        <ele>175.373</ele>
        <time>2011-03-20T16:44:10Z</time>
      </trkpt>
      <trkpt lat="43.35568" lon="2.74251">
        <ele>177.094</ele>
        <time>2011-03-20T16:44:13Z</time>
      </trkpt>
      <trkpt lat="43.35568" lon="2.74251">
        <ele>177.35</ele>
        <time>2011-03-20T16:44:14Z</time>
      </trkpt>
      <trkpt lat="43.35568" lon="2.74251">
        <ele>178.933</ele>
        <time>2011-03-20T16:44:17Z</time>
      </trkpt>
      <trkpt lat="43.35568" lon="2.74251">
        <ele>177.392</ele>
        <time>2011-03-20T16:44:46Z</time>
      </trkpt>
      <trkpt lat="43.35568" lon="2.74251">
        <ele>175.365</ele>
        <time>2011-03-20T16:44:51Z</time>
      </trkpt>
      <trkpt lat="43.35568" lon="2.74251">
        <ele>173.656</ele>
        <time>2011-03-20T16:44:54Z</time>
      </trkpt>
      <trkpt lat="43.35568" lon="2.74251">
        <ele>175.516</ele>
        <time>2011-03-20T16:45:00Z</time>
      </trkpt>
      <trkpt lat="43.35568" lon="2.74251">
        <ele>177.434</ele>
        <time>2011-03-20T16:45:02Z</time>
      </trkpt>
      <trkpt lat="43.35568" lon="2.74251">
        <ele>179.041</ele>
        <time>2011-03-20T16:45:04Z</time>
      </trkpt>
      <trkpt lat="43.35568" lon="2.74251">
        <ele>180.563</ele>
        <time>2011-03-20T16:45:06Z</time>
      </trkpt>
      <trkpt lat="43.35568" lon="2.74251">
        <ele>182.074</ele>
        <time>2011-03-20T16:45:09Z</time>
      </trkpt>
      <trkpt lat="43.35568" lon="2.74251">
        <ele>183.599</ele>
        <time>2011-03-20T16:45:12Z</time>
      </trkpt>
      <trkpt lat="43.35568" lon="2.74251">
        <ele>182.077</ele>
        <time>2011-03-20T16:45:17Z</time>
      </trkpt>
      <trkpt lat="43.35568" lon="2.74251">
        <ele>180.359</ele>
        <time>2011-03-20T16:45:19Z</time>
      </trkpt>
      <trkpt lat="43.35568" lon="2.74251">
        <ele>180.148</ele>
        <time>2011-03-20T16:45:20Z</time>
      </trkpt>
      <trkpt lat="43.35568" lon="2.74251">
        <ele>178.264</ele>
        <time>2011-03-20T16:45:25Z</time>
      </trkpt>
      <trkpt lat="43.35568" lon="2.74251">
        <ele>179.857</ele>
        <time>2011-03-20T16:45:32Z</time>
      </trkpt>
      <trkpt lat="43.35568" lon="2.74251">
        <ele>181.39</ele>
        <time>2011-03-20T16:45:42Z</time>
      </trkpt>
      <trkpt lat="43.35568" lon="2.74251">
        <ele>183.327</ele>
        <time>2011-03-20T16:45:46Z</time>
      </trkpt>
      <trkpt lat="43.35568" lon="2.74251">
        <ele>185.15</ele>
        <time>2011-03-20T16:45:48Z</time>
      </trkpt>
      <trkpt lat="43.35568" lon="2.74251">
        <ele>187.177</ele>
        <time>2011-03-20T16:45:51Z</time>
      </trkpt>
      <trkpt lat="43.35568" lon="2.74251">
        <ele>188.691</ele>
        <time>2011-03-20T16:45:57Z</time>
      </trkpt>
      <trkpt lat="43.35568" lon="2.74251">
        <ele>190.236</ele>
        <time>2011-03-20T16:46:27Z</time>
      </trkpt>
      <trkpt lat="43.35568" lon="2.74251">
        <ele>191.785</ele>
        <time>2011-03-20T16:46:57Z</time>
      </trkpt>
      <trkpt lat="43.35568" lon="2.74251">
        <ele>190.213</ele>
        <time>2011-03-20T16:47:12Z</time>
      </trkpt>
      <trkpt lat="43.35568" lon="2.74251">
        <ele>188.693</ele>
        <time>2011-03-20T16:47:21Z</time>
      </trkpt>
      <trkpt lat="43.35568" lon="2.74251">
        <ele>186.936</ele>
        <time>2011-03-20T16:47:25Z</time>
      </trkpt>
      <trkpt lat="43.35568" lon="2.74251">
        <ele>188.537</ele>
        <time>2011-03-20T16:47:38Z</time>
      </trkpt>
      <trkpt lat="43.35568" lon="2.74251">
        <ele>190.157</ele>
        <time>2011-03-20T16:47:43Z</time>
      </trkpt>
      <trkpt lat="43.35568" lon="2.74251">
        <ele>191.764</ele>
        <time>2011-03-20T16:48:45Z</time>
      </trkpt>
      <trkpt lat="43.35568" lon="2.74251">
        <ele>193.286</ele>
        <time>2011-03-20T16:48:55Z</time>
      </trkpt>
      <trkpt lat="43.35568" lon="2.74251">
        <ele>195.455</ele>
        <time>2011-03-20T16:49:00Z</time>
      </trkpt>
      <trkpt lat="43.35568" lon="2.74251">
        <ele>197.196</ele>
        <time>2011-03-20T16:49:03Z</time>
      </trkpt>
      <trkpt lat="43.35568" lon="2.74251">
        <ele>198.903</ele>
        <time>2011-03-20T16:49:04Z</time>
      </trkpt>
      <trkpt lat="43.35568" lon="2.74251">
        <ele>198.803</ele>
        <time>2011-03-20T16:49:05Z</time>
      </trkpt>
      <trkpt lat="43.35568" lon="2.74251">
        <ele>200.312</ele>
        <time>2011-03-20T16:49:08Z</time>
      </trkpt>
      <trkpt lat="43.35568" lon="2.74251">
        <ele>201.995</ele>
        <time>2011-03-20T16:49:10Z</time>
      </trkpt>
      <trkpt lat="43.35568" lon="2.74251">
        <ele>203.683</ele>
        <time>2011-03-20T16:49:14Z</time>
      </trkpt>
      <trkpt lat="43.35568" lon="2.74251">
        <ele>205.247</ele>
        <time>2011-03-20T16:49:17Z</time>
      </trkpt>
      <trkpt lat="43.35568" lon="2.74251">
        <ele>203.57</ele>
        <time>2011-03-20T16:49:26Z</time>
      </trkpt>
      <trkpt lat="43.35568" lon="2.74251">
        <ele>205.123</ele>
        <time>2011-03-20T16:49:33Z</time>
      </trkpt>
      <trkpt lat="43.35568" lon="2.74251">
        <ele>207.121</ele>
        <time>2011-03-20T16:49:37Z</time>
      </trkpt>
      <trkpt lat="43.35568" lon="2.74251">
        <ele>209.047</ele>
        <time>2011-03-20T16:49:41Z</time>
      </trkpt>
      <trkpt lat="43.35568" lon="2.74251">
        <ele>209.124</ele>
        <time>2011-03-20T16:49:42Z</time>
      </trkpt>
      <trkpt lat="43.35568" lon="2.74251">
        <ele>210.63</ele>
        <time>2011-03-20T16:49:46Z</time>
      </trkpt>
      <trkpt lat="43.35568" lon="2.74251">
        <ele>212.194</ele>
        <time>2011-03-20T16:49:49Z</time>
      </trkpt>
      <trkpt lat="43.35568" lon="2.74251">
        <ele>214.332</ele>
        <time>2011-03-20T16:49:54Z</time>
      </trkpt>
      <trkpt lat="43.35568" lon="2.74251">
        <ele>216.086</ele>
        <time>2011-03-20T16:49:57Z</time>
      </trkpt>
      <trkpt lat="43.35568" lon="2.74251">
        <ele>217.772</ele>
        <time>2011-03-20T16:50:02Z</time>
      </trkpt>
      <trkpt lat="43.35568" lon="2.74251">
        <ele>220.013</ele>
        <time>2011-03-20T16:50:04Z</time>
      </trkpt>
      <trkpt lat="43.35568" lon="2.74251">
        <ele>220.631</ele>
        <time>2011-03-20T16:50:05Z</time>
      </trkpt>
      <trkpt lat="43.35568" lon="2.74251">
        <ele>222.187</ele>
        <time>2011-03-20T16:50:10Z</time>
      </trkpt>
      <trkpt lat="43.35568" lon="2.74251">
        <ele>223.791</ele>
        <time>2011-03-20T16:50:14Z</time>
      </trkpt>
      <trkpt lat="43.35568" lon="2.74251">
        <ele>222.888</ele>
        <time>2011-03-20T16:50:17Z</time>
      </trkpt>
      <trkpt lat="43.35568" lon="2.74251">
        <ele>221.366</ele>
        <time>2011-03-20T16:50:36Z</time>
      </trkpt>
      <trkpt lat="43.35568" lon="2.74251">
        <ele>223.424</ele>
        <time>2011-03-20T16:50:48Z</time>
      </trkpt>
      <trkpt lat="43.35568" lon="2.74251">
        <ele>224.132</ele>
        <time>2011-03-20T16:50:49Z</time>
      </trkpt>
      <trkpt lat="43.35568" lon="2.74251">
        <ele>222.703</ele>
        <time>2011-03-20T16:50:51Z</time>
      </trkpt>
      <trkpt lat="43.35568" lon="2.74251">
        <ele>224.336</ele>
        <time>2011-03-20T16:50:53Z</time>
      </trkpt>
      <trkpt lat="43.35568" lon="2.74251">
        <ele>226.035</ele>
        <time>2011-03-20T16:50:58Z</time>
      </trkpt>
      <trkpt lat="43.35568" lon="2.74251">
        <ele>227.607</ele>
        <time>2011-03-20T16:51:03Z</time>
      </trkpt>
      <trkpt lat="43.35568" lon="2.74251">
        <ele>229.182</ele>
        <time>2011-03-20T16:51:07Z</time>
      </trkpt>
      <trkpt lat="43.35568" lon="2.74251">
        <ele>230.825</ele>
        <time>2011-03-20T16:51:11Z</time>
      </trkpt>
      <trkpt lat="43.35568" lon="2.74251">
        <ele>232.442</ele>
        <time>2011-03-20T16:51:16Z</time>
      </trkpt>
      <trkpt lat="43.35568" lon="2.74251">
        <ele>234.913</ele>
        <time>2011-03-20T16:51:17Z</time>
      </trkpt>
      <trkpt lat="43.35568" lon="2.74251">
        <ele>234.136</ele>
        <time>2011-03-20T16:51:18Z</time>
      </trkpt>
      <trkpt lat="43.35568" lon="2.74251">
        <ele>233.346</ele>
        <time>2011-03-20T16:51:19Z</time>
      </trkpt>
      <trkpt lat="43.35568" lon="2.74251">
        <ele>235.045</ele>
        <time>2011-03-20T16:51:23Z</time>
      </trkpt>
      <trkpt lat="43.35568" lon="2.74251">
        <ele>236.665</ele>
        <time>2011-03-20T16:51:26Z</time>
      </trkpt>
      <trkpt lat="43.35568" lon="2.74251">
        <ele>238.364</ele>
        <time>2011-03-20T16:51:30Z</time>
      </trkpt>
      <trkpt lat="43.35568" lon="2.74251">
        <ele>239.962</ele>
        <time>2011-03-20T16:51:35Z</time>
      </trkpt>
      <trkpt lat="43.35568" lon="2.74251">
        <ele>241.487</ele>
        <time>2011-03-20T16:51:39Z</time>
      </trkpt>
      <trkpt lat="43.35568" lon="2.74251">
        <ele>243.03</ele>
        <time>2011-03-20T16:51:40Z</time>
      </trkpt>
      <trkpt lat="43.35568" lon="2.74251">
        <ele>243.212</ele>
        <time>2011-03-20T16:51:41Z</time>
      </trkpt>
      <trkpt lat="43.35568" lon="2.74251">
        <ele>244.837</ele>
        <time>2011-03-20T16:51:47Z</time>
      </trkpt>
      <trkpt lat="43.35568" lon="2.74251">
        <ele>247.062</ele>
        <time>2011-03-20T16:51:52Z</time>
      </trkpt>
      <trkpt lat="43.35568" lon="2.74251">
        <ele>247.908</ele>
        <time>2011-03-20T16:51:53Z</time>
      </trkpt>
      <trkpt lat="43.35568" lon="2.74251">
        <ele>246.018</ele>
        <time>2011-03-20T16:52:11Z</time>
      </trkpt>
      <trkpt lat="43.35568" lon="2.74251">
        <ele>244.428</ele>
        <time>2011-03-20T16:52:14Z</time>
      </trkpt>
      <trkpt lat="43.35568" lon="2.74251">
        <ele>242.562</ele>
        <time>2011-03-20T16:52:17Z</time>
      </trkpt>
      <trkpt lat="43.35568" lon="2.74251">
        <ele>240.76</ele>
        <time>2011-03-20T16:52:19Z</time>
      </trkpt>
      <trkpt lat="43.35568" lon="2.74251">
        <ele>238.588</ele>
        <time>2011-03-20T16:52:20Z</time>
      </trkpt>
      <trkpt lat="43.35568" lon="2.74251">
        <ele>237.024</ele>
        <time>2011-03-20T16:52:22Z</time>
      </trkpt>
      <trkpt lat="43.35568" lon="2.74251">
        <ele>234.987</ele>
        <time>2011-03-20T16:52:26Z</time>
      </trkpt>
      <trkpt lat="43.35568" lon="2.74251">
        <ele>232.582</ele>
        <time>2011-03-20T16:52:28Z</time>
      </trkpt>
      <trkpt lat="43.35568" lon="2.74251">
        <ele>230.955</ele>
        <time>2011-03-20T16:52:29Z</time>
      </trkpt>
      <trkpt lat="43.35568" lon="2.74251">
        <ele>229.359</ele>
        <time>2011-03-20T16:52:30Z</time>
      </trkpt>
      <trkpt lat="43.35568" lon="2.74251">
        <ele>227.628</ele>
        <time>2011-03-20T16:52:32Z</time>
      </trkpt>
      <trkpt lat="43.35568" lon="2.74251">
        <ele>225.361</ele>
        <time>2011-03-20T16:52:34Z</time>
      </trkpt>
      <trkpt lat="43.35568" lon="2.74251">
        <ele>222.074</ele>
        <time>2011-03-20T16:52:36Z</time>
      </trkpt>
      <trkpt lat="43.35568" lon="2.74251">
        <ele>223.955</ele>
        <time>2011-03-20T16:52:37Z</time>
      </trkpt>
      <trkpt lat="43.35568" lon="2.74251">
        <ele>222.383</ele>
        <time>2011-03-20T16:52:38Z</time>
      </trkpt>
      <trkpt lat="43.35568" lon="2.74251">
        <ele>220.531</ele>
        <time>2011-03-20T16:52:40Z</time>
      </trkpt>
      <trkpt lat="43.35568" lon="2.74251">
        <ele>220.277</ele>
        <time>2011-03-20T16:52:41Z</time>
      </trkpt>
      <trkpt lat="43.35568" lon="2.74251">
        <ele>218.53</ele>
        <time>2011-03-20T16:52:42Z</time>
      </trkpt>
      <trkpt lat="43.35568" lon="2.74251">
        <ele>216.8</ele>
        <time>2011-03-20T16:52:44Z</time>
      </trkpt>
      <trkpt lat="43.35568" lon="2.74251">
        <ele>215.013</ele>
        <time>2011-03-20T16:52:46Z</time>
      </trkpt>
      <trkpt lat="43.35568" lon="2.74251">
        <ele>212.733</ele>
        <time>2011-03-20T16:52:49Z</time>
      </trkpt>
      <trkpt lat="43.35568" lon="2.74251">
        <ele>211.016</ele>
        <time>2011-03-20T16:53:24Z</time>
      </trkpt>
      <trkpt lat="43.35568" lon="2.74251">
        <ele>212.707</ele>
        <time>2011-03-20T16:53:27Z</time>
      </trkpt>
      <trkpt lat="43.35568" lon="2.74251">
        <ele>210.995</ele>
        <time>2011-03-20T16:53:29Z</time>
      </trkpt>
      <trkpt lat="43.35568" lon="2.74251">
        <ele>212.831</ele>
        <time>2011-03-20T16:53:32Z</time>
      </trkpt>
      <trkpt lat="43.35568" lon="2.74251">
        <ele>211.309</ele>
        <time>2011-03-20T16:53:33Z</time>
      </trkpt>
      <trkpt lat="43.35568" lon="2.74251">
        <ele>212.937</ele>
        <time>2011-03-20T16:54:00Z</time>
      </trkpt>
      <trkpt lat="43.35568" lon="2.74251">
        <ele>211.216</ele>
        <time>2011-03-20T16:54:06Z</time>
      </trkpt>
      <trkpt lat="43.35568" lon="2.74251">
        <ele>212.725</ele>
        <time>2011-03-20T16:54:13Z</time>
      </trkpt>
      <trkpt lat="43.35568" lon="2.74251">
        <ele>214.464</ele>
        <time>2011-03-20T16:54:28Z</time>
      </trkpt>
      <trkpt lat="43.35568" lon="2.74251">
        <ele>215.074</ele>
        <time>2011-03-20T16:54:29Z</time>
      </trkpt>
      <trkpt lat="43.35568" lon="2.74251">
        <ele>216.81</ele>
        <time>2011-03-20T16:54:47Z</time>
      </trkpt>
      <trkpt lat="43.35568" lon="2.74251">
        <ele>215.28</ele>
        <time>2011-03-20T16:55:21Z</time>
      </trkpt>
      <trkpt lat="43.35568" lon="2.74251">
        <ele>213.528</ele>
        <time>2011-03-20T16:55:31Z</time>
      </trkpt>
      <trkpt lat="43.35568" lon="2.74251">
        <ele>211.766</ele>
        <time>2011-03-20T16:55:41Z</time>
      </trkpt>
      <trkpt lat="43.35568" lon="2.74251">
        <ele>210.307</ele>
        <time>2011-03-20T16:56:06Z</time>
      </trkpt>
    </trkseg>
  </trk>
</gpx>